Decoded Metar for KFEW ( in ) (IATA:) | Meteo·Mobile Aviation Weather
aviador You're here:

KFEW Decoded Metar

in
Report Time2019-02-17 14:59:00
UTC Time2019-02-17 15:30:41
Flight Rules vfr VFR
Wind020° at 07 kt
W.Rank020° ranks 23
Current wind is below 020° avg. (9.3)
Visibility9999 m
Phenomena:Light Snow
Clouds:Few 005 Hf
Expected CloudBase > 400 ft AGL from Temp-Dew spread
CeilingNone
Temp-12°C
Dew Point-13°C (92% RH)
AAT-17.8°C
QNH1009 hPa
Raw Report
SPECI KFEW 171459Z AUTO 02007KT 10SM -SN FEW005 M12/M13 A2980 RMK AO2
SNB58 SLP158 $=

Extra information for KFEW:More info

Social comments